createdAt,value
2024-03-02T00:03:59.151Z,6.97
2024-03-02T00:09:26.158Z,9.70
2024-03-02T00:14:51.093Z,8.75
2024-03-02T00:20:21.053Z,7.00
2024-03-02T00:25:54.082Z,8.55
2024-03-02T00:31:20.102Z,8.48
2024-03-02T00:36:47.151Z,9.65
2024-03-02T00:42:12.124Z,9.15
2024-03-02T00:47:36.096Z,10.93
2024-03-02T00:53:04.095Z,10.23
2024-03-02T00:58:29.088Z,11.45
2024-03-02T01:03:54.301Z,10.63
2024-03-02T01:09:22.241Z,10.77
2024-03-02T01:14:47.076Z,9.75
2024-03-02T01:20:12.106Z,9.75
2024-03-02T01:25:40.088Z,10.10
2024-03-02T01:31:05.149Z,10.93
2024-03-02T01:36:30.146Z,10.95
2024-03-02T01:41:57.112Z,13.07
2024-03-02T01:47:22.113Z,10.55
2024-03-02T01:52:46.138Z,10.48
2024-03-02T01:58:15.285Z,12.02
2024-03-02T02:03:40.146Z,12.35
2024-03-02T02:09:05.157Z,10.65
2024-03-02T02:14:32.132Z,11.43
2024-03-02T02:19:57.166Z,14.70
2024-03-02T02:25:24.125Z,13.13
2024-03-02T02:30:49.271Z,12.35
2024-03-02T02:36:13.164Z,13.13
2024-03-02T02:41:41.150Z,13.23
2024-03-02T02:47:05.183Z,12.75
2024-03-02T02:52:37.132Z,12.52
2024-03-02T02:58:05.185Z,13.48
2024-03-02T03:03:29.181Z,14.50
2024-03-02T03:08:54.140Z,17.05
2024-03-02T03:14:21.170Z,16.70
2024-03-02T03:19:46.162Z,18.05
2024-03-02T03:25:11.191Z,20.50
2024-03-02T03:30:39.215Z,19.45
2024-03-02T03:36:04.173Z,18.85
2024-03-02T03:41:29.160Z,19.17
2024-03-02T03:46:56.159Z,17.58
2024-03-02T03:52:21.156Z,18.13
2024-03-02T03:57:45.173Z,16.75
2024-03-02T04:03:13.163Z,16.15
2024-03-02T04:08:37.163Z,16.17
2024-03-02T04:14:02.165Z,16.48
2024-03-02T04:19:29.199Z,16.52
2024-03-02T04:25:01.236Z,18.30
2024-03-02T04:30:26.201Z,21.52
2024-03-02T04:35:54.171Z,19.95
2024-03-02T04:41:19.203Z,22.83
2024-03-02T04:46:43.185Z,26.00
2024-03-02T04:52:11.200Z,28.60
2024-03-02T04:57:35.270Z,29.65
2024-03-02T05:03:00.239Z,33.58
2024-03-02T05:08:27.214Z,31.23
2024-03-02T05:13:52.209Z,36.65
2024-03-02T05:19:17.195Z,34.95
2024-03-02T05:24:45.288Z,37.40
2024-03-02T05:30:09.214Z,39.67
2024-03-02T05:35:34.194Z,34.67
2024-03-02T05:41:01.244Z,34.40
2024-03-02T05:46:27.217Z,36.70
2024-03-02T05:51:51.396Z,36.38
2024-03-02T05:57:40.355Z,35.72
2024-03-02T06:03:04.230Z,34.10
2024-03-02T06:08:29.231Z,33.42
2024-03-02T06:13:56.226Z,33.08
2024-03-02T06:19:21.224Z,31.63
2024-03-02T06:24:46.269Z,35.53
2024-03-02T06:30:16.241Z,31.50
2024-03-02T06:35:40.234Z,33.63
2024-03-02T06:41:06.262Z,29.02
2024-03-02T06:46:34.341Z,29.83
2024-03-02T06:51:59.343Z,29.13
2024-03-02T06:57:25.265Z,30.92
2024-03-02T07:02:53.255Z,26.88
2024-03-02T07:08:18.275Z,25.63
2024-03-02T07:13:43.219Z,24.27
2024-03-02T07:19:11.372Z,24.75
2024-03-02T07:24:36.298Z,24.20
2024-03-02T07:30:00.347Z,22.55
2024-03-02T07:35:28.327Z,23.08
2024-03-02T07:40:52.267Z,24.75
2024-03-02T07:46:17.274Z,24.27
2024-03-02T07:51:44.317Z,21.48
2024-03-02T07:57:09.310Z,18.55
2024-03-02T08:02:34.379Z,15.30
2024-03-02T08:08:02.317Z,14.25
2024-03-02T08:13:27.284Z,14.48
2024-03-02T08:18:52.337Z,13.25
2024-03-02T08:24:19.321Z,12.38
2024-03-02T08:29:44.295Z,13.18
2024-03-02T08:35:09.317Z,12.18
2024-03-02T08:40:37.313Z,13.10
2024-03-02T08:46:02.331Z,11.85
2024-03-02T08:51:27.372Z,9.88
2024-03-02T08:57:01.296Z,11.27
2024-03-02T09:02:26.335Z,9.02
2024-03-02T09:07:50.390Z,9.70
2024-03-02T09:13:18.325Z,10.73
2024-03-02T09:18:42.403Z,8.32
2024-03-02T09:24:07.318Z,8.80
2024-03-02T09:29:34.287Z,7.85
2024-03-02T09:35:01.364Z,7.90
2024-03-02T09:40:27.337Z,7.75
2024-03-02T09:45:56.338Z,7.13
2024-03-02T09:51:22.385Z,7.38
2024-03-02T09:56:53.335Z,7.97
2024-03-02T10:02:21.455Z,7.47
2024-03-02T10:07:47.334Z,6.15
2024-03-02T10:13:16.384Z,8.90
2024-03-02T10:18:45.379Z,5.50
2024-03-02T10:24:18.493Z,5.70
2024-03-02T10:29:46.371Z,6.05
2024-03-02T10:35:16.380Z,5.38
2024-03-02T10:40:40.359Z,6.05
2024-03-02T10:46:07.528Z,5.20
2024-03-02T10:51:35.403Z,5.00
2024-03-02T10:57:06.542Z,4.43
2024-03-02T11:02:33.365Z,4.93
2024-03-02T11:08:02.197Z,5.20
2024-03-02T11:13:37.809Z,6.45
2024-03-02T11:19:06.449Z,4.70
2024-03-02T11:24:45.397Z,4.30
2024-03-02T11:30:10.371Z,4.60
2024-03-02T11:35:36.422Z,5.35
2024-03-02T11:41:03.392Z,4.60
2024-03-02T11:46:32.403Z,5.13
2024-03-02T11:52:09.431Z,3.97
2024-03-02T11:57:44.435Z,3.90
2024-03-02T12:03:12.412Z,3.45
2024-03-02T12:08:37.432Z,5.85
2024-03-02T12:14:06.414Z,3.30
2024-03-02T12:19:31.420Z,3.47
2024-03-02T12:24:56.486Z,6.35
2024-03-02T12:30:24.457Z,3.10
2024-03-02T12:35:52.456Z,2.92
2024-03-02T12:41:16.463Z,2.40
2024-03-02T12:46:44.499Z,2.20
2024-03-02T12:52:10.471Z,2.47
2024-03-02T12:57:38.291Z,2.58
2024-03-02T13:03:12.043Z,1.50
2024-03-02T13:08:37.462Z,2.60
2024-03-02T13:14:02.453Z,2.13
2024-03-02T13:19:30.467Z,1.50
2024-03-02T13:24:54.497Z,1.77
2024-03-02T13:30:20.437Z,1.88
2024-03-02T13:35:47.457Z,1.35
2024-03-02T13:41:12.475Z,2.13
2024-03-02T13:46:36.467Z,1.10
2024-03-02T13:52:04.544Z,1.33
2024-03-02T13:57:35.533Z,0.93
2024-03-02T14:03:00.509Z,0.90
2024-03-02T14:08:27.496Z,1.05
2024-03-02T14:13:56.555Z,1.10
2024-03-02T14:19:20.492Z,1.10
2024-03-02T14:24:48.497Z,1.10
2024-03-02T14:30:14.514Z,1.33
2024-03-02T14:35:40.564Z,1.50
2024-03-02T14:41:07.535Z,2.22
2024-03-02T14:46:32.483Z,1.42
2024-03-02T14:51:57.560Z,1.95
2024-03-02T14:57:31.517Z,2.13
2024-03-02T15:03:02.566Z,2.42
2024-03-02T15:08:27.522Z,2.40
2024-03-02T15:13:54.529Z,2.40
2024-03-02T15:19:19.536Z,4.05
2024-03-02T15:24:43.574Z,3.03
2024-03-02T15:30:11.540Z,1.98
2024-03-02T15:35:35.540Z,1.70
2024-03-02T15:41:00.580Z,2.13
2024-03-02T15:46:29.522Z,2.58
2024-03-02T15:51:54.570Z,2.25
2024-03-02T15:57:25.581Z,2.30
2024-03-02T16:02:53.542Z,2.28
2024-03-02T16:08:17.562Z,2.28
2024-03-02T16:13:43.614Z,4.35
2024-03-02T16:19:16.982Z,4.50
2024-03-02T16:24:43.653Z,2.38
2024-03-02T16:30:08.575Z,2.67
2024-03-02T16:35:35.631Z,2.42
2024-03-02T16:41:00.558Z,4.60
2024-03-02T16:46:25.570Z,2.47
2024-03-02T16:51:54.640Z,2.67
2024-03-02T16:57:25.661Z,2.67
2024-03-02T17:02:50.596Z,3.40
2024-03-02T17:08:17.660Z,4.55
2024-03-02T17:13:42.613Z,3.58
2024-03-02T17:19:06.949Z,4.10
2024-03-02T17:24:34.602Z,4.53
2024-03-02T17:29:58.633Z,2.60
2024-03-02T17:35:23.595Z,2.92
2024-03-02T17:40:50.588Z,3.38
2024-03-02T17:46:15.808Z,4.60
2024-03-02T17:51:42.667Z,4.20
2024-03-02T17:57:16.593Z,3.33
2024-03-02T18:02:42.625Z,3.10
2024-03-02T18:08:06.638Z,3.72
2024-03-02T18:13:34.616Z,4.25
2024-03-02T18:18:58.675Z,4.25
2024-03-02T18:24:25.678Z,3.42
2024-03-02T18:29:52.655Z,4.38
2024-03-02T18:35:18.672Z,3.45
2024-03-02T18:40:42.647Z,3.53
2024-03-02T18:46:10.694Z,4.13
2024-03-02T18:51:38.691Z,4.97
2024-03-02T18:57:09.682Z,5.18
2024-03-02T19:02:37.626Z,4.43
2024-03-02T19:08:01.682Z,3.50
2024-03-02T19:13:26.755Z,4.18
2024-03-02T19:18:53.677Z,4.72
2024-03-02T19:24:18.716Z,4.20
2024-03-02T19:29:42.680Z,5.35
2024-03-02T19:35:10.659Z,4.55
2024-03-02T19:40:34.646Z,5.60
2024-03-02T19:45:59.781Z,5.00
2024-03-02T19:51:27.133Z,4.95
2024-03-02T19:56:59.853Z,4.28
2024-03-02T20:02:26.678Z,4.82
2024-03-02T20:07:53.666Z,4.55
2024-03-02T20:13:18.764Z,5.35
2024-03-02T20:18:43.756Z,4.80
2024-03-02T20:24:11.678Z,4.20
2024-03-02T20:29:35.755Z,5.22
2024-03-02T20:35:00.736Z,5.47
2024-03-02T20:40:29.708Z,4.55
2024-03-02T20:45:54.699Z,4.43
2024-03-02T20:51:20.700Z,4.60
2024-03-02T20:56:54.727Z,5.97
2024-03-02T21:02:19.809Z,7.13
2024-03-02T21:07:45.758Z,6.00
2024-03-02T21:13:13.909Z,4.60
2024-03-02T21:18:38.757Z,5.50
2024-03-02T21:24:03.725Z,6.60
2024-03-02T21:29:32.854Z,6.07
2024-03-02T21:34:57.762Z,6.20
2024-03-02T21:40:24.838Z,6.55
2024-03-02T21:45:52.784Z,6.47
2024-03-02T21:51:16.715Z,6.25
2024-03-02T21:56:41.741Z,7.95
2024-03-02T22:02:08.799Z,7.28
2024-03-02T22:07:33.787Z,7.93
2024-03-02T22:12:57.791Z,7.45
2024-03-02T22:18:26.729Z,7.53
2024-03-02T22:23:53.754Z,7.30
2024-03-02T22:29:18.792Z,7.47
2024-03-02T22:34:48.757Z,9.43
2024-03-02T22:40:15.799Z,6.97
2024-03-02T22:45:40.795Z,6.82
2024-03-02T22:51:08.755Z,7.78
2024-03-02T22:56:39.737Z,7.95
2024-03-02T23:02:04.936Z,7.73
2024-03-02T23:07:32.780Z,6.53
2024-03-02T23:12:57.843Z,6.80
2024-03-02T23:18:22.827Z,7.90
2024-03-02T23:23:50.800Z,8.32
2024-03-02T23:29:15.784Z,7.90
2024-03-02T23:34:41.786Z,7.95
2024-03-02T23:40:28.774Z,9.25
2024-03-02T23:45:54.050Z,9.35
2024-03-02T23:51:18.031Z,9.85
2024-03-02T23:56:51.832Z,10.38
